Aireys Inlet, Victoria

8:50 AM AEST on August 28, 2016 (GMT +1000)
Aireys Inlet - Fairhaven | | Change Station

Elev 0 ft 38.46 °S, 144.11 °E | Updated 5 minutes ago

Overcast
Overcast
51.1 °F
Feels Like 51.1 °F
N
3.1
Wind Variable Wind from WNW
Gusts 6.8 mph

Today
High -- | Low -- °F
--% Chance of Precip.
Yesterday
High -- | Low -- °F
Precip. -- in
Pressure 30.09 in
Visibility 6.2 miles
Clouds Overcast 10000 ft
Dew Point 41 °F
Humidity 69%
Rainfall 0.00 in
Snow Depth Not available.
6:51 AM 5:58 PM
Waning Crescent, 21% visible
METAR YMAV 272230Z AUTO 23003KT 9999 // OVC100 11/05 Q1019
Pressure 30.09 in
Visibility 6.2 miles
Clouds Overcast 10000 ft
Dew Point 41 °F
Humidity 69%
Rainfall 0.00 in
Snow Depth Not available.
6:51 AM 5:58 PM
Waning Crescent, 21% visible
METAR YMAV 272230Z AUTO 23003KT 9999 // OVC100 11/05 Q1019

10-Day Weather Forecast

Almanac

Astronomy

Aug. 28, 2016 Rise Set
Actual Time
Civil Twilight
Nautical Twilight
Astronomical Twilight
Moon
Length of Visible Light
Length of Day
Tomorrow will be .
, % of the Moon is Illuminated

Today's Extremes

Country Highs Country Lows

Community

WunderPhotos

Upload Photos

1,935,458 photos uploaded!

WunderBlog® & News

Nearby

Air Quality

  Air Quality AQ Index Pollutant
Not available.

Snow Depth

Station Depth Elevation

Earthquake Activity

City Distance Mag. Time & Date
Minimum magnitude displayed is 2.5.

Coastal Water Temperatures

Place Temperature

Stations

Nearby Weather Stations

Station Location Temp. Windchill Dew Point Humidity Wind Precip. Elev Updated Type